createdAt,value
2018-11-26T00:00:54.272Z,37.47
2018-11-26T00:03:22.754Z,37.47
2018-11-26T00:05:51.261Z,34.27
2018-11-26T00:08:19.981Z,32.37
2018-11-26T00:11:31.062Z,38.67
2018-11-26T00:13:59.554Z,36.37
2018-11-26T00:16:28.255Z,36.93
2018-11-26T00:18:56.755Z,39.27
2018-11-26T00:21:25.316Z,37.63
2018-11-26T00:23:53.783Z,39.27
2018-11-26T00:26:22.266Z,37.57
2018-11-26T00:28:50.795Z,38.87
2018-11-26T00:31:27.659Z,41.03
2018-11-26T00:33:58.676Z,37.83
2018-11-26T00:36:30.633Z,39.73
2018-11-26T00:38:59.331Z,39.33
2018-11-26T00:41:29.121Z,38.37
2018-11-26T00:43:57.613Z,41.17
2018-11-26T00:46:26.290Z,40.43
2018-11-26T00:48:55.478Z,38.10
2018-11-26T00:51:23.980Z,38.13
2018-11-26T00:53:52.440Z,37.93
2018-11-26T00:56:20.881Z,37.50
2018-11-26T00:58:49.509Z,37.70
2018-11-26T01:01:17.986Z,39.37
2018-11-26T01:03:46.571Z,37.27
2018-11-26T01:06:15.063Z,36.67
2018-11-26T01:08:43.573Z,37.77
2018-11-26T01:11:12.087Z,35.23
2018-11-26T01:13:40.611Z,36.47
2018-11-26T01:16:09.172Z,35.33
2018-11-26T01:18:37.744Z,37.47
2018-11-26T01:21:06.281Z,36.50
2018-11-26T01:23:34.764Z,35.13
2018-11-26T01:26:03.252Z,34.73
2018-11-26T01:28:31.689Z,35.13
2018-11-26T01:31:00.209Z,34.43
2018-11-26T01:33:28.733Z,36.50
2018-11-26T01:35:57.239Z,31.27
2018-11-26T01:38:25.789Z,28.60
2018-11-26T01:40:54.328Z,35.33
2018-11-26T01:43:22.895Z,30.37
2018-11-26T01:45:51.419Z,30.37
2018-11-26T01:48:20.941Z,28.47
2018-11-26T01:50:49.443Z,31.03
2018-11-26T01:53:18.025Z,31.00
2018-11-26T01:55:46.501Z,27.53
2018-11-26T01:58:15.032Z,29.17
2018-11-26T02:00:43.524Z,27.07
2018-11-26T02:03:12.109Z,28.03
2018-11-26T02:05:40.625Z,28.07
2018-11-26T02:08:09.471Z,27.57
2018-11-26T02:10:37.881Z,27.00
2018-11-26T02:13:06.342Z,26.40
2018-11-26T02:15:38.951Z,26.43
2018-11-26T02:18:08.998Z,24.40
2018-11-26T02:20:37.568Z,24.67
2018-11-26T02:23:06.248Z,26.83
2018-11-26T02:25:34.677Z,26.57
2018-11-26T02:28:03.607Z,22.93
2018-11-26T02:30:32.119Z,25.53
2018-11-26T02:33:00.601Z,28.73
2018-11-26T02:35:29.065Z,27.10
2018-11-26T02:37:57.566Z,29.67
2018-11-26T02:40:27.444Z,28.83
2018-11-26T02:42:55.880Z,29.10
2018-11-26T02:45:24.361Z,31.93
2018-11-26T02:47:53.244Z,28.80
2018-11-26T02:50:21.684Z,29.70
2018-11-26T02:52:51.104Z,27.60
2018-11-26T02:55:19.655Z,28.87
2018-11-26T02:57:48.435Z,30.67
2018-11-26T03:00:16.902Z,29.57
2018-11-26T03:02:45.407Z,30.00
2018-11-26T03:05:18.527Z,32.53
2018-11-26T03:07:47.091Z,29.97
2018-11-26T03:10:15.656Z,27.33
2018-11-26T03:12:44.207Z,25.97
2018-11-26T03:15:12.898Z,32.10
2018-11-26T03:17:41.382Z,25.20
2018-11-26T03:20:11.019Z,24.70
2018-11-26T03:22:39.507Z,25.97
2018-11-26T03:25:10.275Z,25.07
2018-11-26T03:27:38.796Z,22.67
2018-11-26T03:30:11.799Z,23.47
2018-11-26T03:32:40.376Z,25.27
2018-11-26T03:35:09.859Z,23.80
2018-11-26T03:37:38.352Z,23.50
2018-11-26T03:40:09.275Z,22.90
2018-11-26T03:42:37.791Z,21.13
2018-11-26T03:45:10.008Z,25.27
2018-11-26T03:47:39.602Z,20.50
2018-11-26T03:50:08.980Z,20.03
2018-11-26T03:52:37.392Z,19.80
2018-11-26T03:55:07.289Z,24.97
2018-11-26T03:57:35.866Z,20.03
2018-11-26T04:00:04.711Z,21.23
2018-11-26T04:02:33.162Z,23.67
2018-11-26T04:05:01.643Z,22.50
2018-11-26T04:07:30.144Z,25.07
2018-11-26T04:09:58.742Z,22.23
2018-11-26T04:12:27.218Z,22.67
2018-11-26T04:14:55.745Z,20.33
2018-11-26T04:17:24.390Z,22.43
2018-11-26T04:19:52.881Z,16.97
2018-11-26T04:22:21.412Z,22.67
2018-11-26T04:24:49.971Z,22.73
2018-11-26T04:27:18.668Z,19.40
2018-11-26T04:29:47.110Z,20.07
2018-11-26T04:32:15.553Z,17.10
2018-11-26T04:34:44.107Z,16.47
2018-11-26T04:37:12.636Z,17.10
2018-11-26T04:39:41.736Z,17.90
2018-11-26T04:42:10.219Z,20.97
2018-11-26T04:44:38.701Z,14.10
2018-11-26T04:47:07.621Z,16.20
2018-11-26T04:49:36.174Z,14.90
2018-11-26T04:52:04.597Z,17.53
2018-11-26T04:54:33.090Z,16.17
2018-11-26T04:57:01.972Z,17.00
2018-11-26T04:59:50.389Z,16.07
2018-11-26T05:02:20.772Z,16.23
2018-11-26T05:04:49.307Z,17.20
2018-11-26T05:07:18.272Z,14.80
2018-11-26T05:09:46.765Z,18.07
2018-11-26T05:12:15.247Z,16.73
2018-11-26T05:14:43.731Z,15.43
2018-11-26T05:17:12.192Z,19.20
2018-11-26T05:19:40.660Z,15.13
2018-11-26T05:22:09.120Z,15.97
2018-11-26T05:24:37.831Z,15.17
2018-11-26T05:27:07.127Z,17.17
2018-11-26T05:29:35.581Z,16.67
2018-11-26T05:32:04.004Z,15.73
2018-11-26T05:34:32.451Z,16.60
2018-11-26T05:37:00.993Z,17.70
2018-11-26T05:39:29.488Z,15.57
2018-11-26T05:41:58.035Z,18.60
2018-11-26T05:44:26.530Z,19.47
2018-11-26T05:46:55.072Z,16.30
2018-11-26T05:49:23.932Z,16.67
2018-11-26T05:51:52.481Z,17.53
2018-11-26T05:54:20.977Z,18.33
2018-11-26T05:56:50.186Z,17.27
2018-11-26T05:59:18.675Z,16.40
2018-11-26T06:01:48.673Z,16.13
2018-11-26T06:04:17.199Z,16.37
2018-11-26T06:06:46.396Z,17.57
2018-11-26T06:09:14.875Z,21.63
2018-11-26T06:11:43.460Z,17.13
2018-11-26T06:14:12.015Z,18.17
2018-11-26T06:16:40.573Z,18.50
2018-11-26T06:19:09.317Z,16.47
2018-11-26T06:21:37.848Z,17.30
2018-11-26T06:24:06.720Z,18.70
2018-11-26T06:26:35.326Z,17.53
2018-11-26T06:29:03.846Z,17.20
2018-11-26T06:31:32.304Z,18.07
2018-11-26T06:34:00.785Z,18.60
2018-11-26T06:36:29.352Z,17.03
2018-11-26T06:38:57.816Z,19.23
2018-11-26T06:41:26.384Z,20.00
2018-11-26T06:43:54.828Z,17.43
2018-11-26T06:46:23.278Z,20.33
2018-11-26T06:48:51.729Z,18.87
2018-11-26T06:51:20.218Z,18.97
2018-11-26T06:53:48.773Z,17.27
2018-11-26T06:56:17.255Z,16.63
2018-11-26T06:58:45.706Z,17.23
2018-11-26T07:01:14.245Z,17.47
2018-11-26T07:03:42.686Z,19.67
2018-11-26T07:06:11.315Z,18.60
2018-11-26T07:08:40.040Z,16.60
2018-11-26T07:11:08.527Z,19.50
2018-11-26T07:13:36.958Z,19.37
2018-11-26T07:16:06.372Z,20.20
2018-11-26T07:18:35.120Z,17.73
2018-11-26T07:21:03.655Z,17.40
2018-11-26T07:23:32.224Z,18.37
2018-11-26T07:26:00.737Z,17.97
2018-11-26T07:28:29.321Z,22.83
2018-11-26T07:30:58.325Z,17.43
2018-11-26T07:33:27.346Z,20.00
2018-11-26T07:35:56.071Z,17.53
2018-11-26T07:38:24.590Z,18.50
2018-11-26T07:40:53.121Z,17.73
2018-11-26T07:43:21.624Z,17.67
2018-11-26T07:45:50.130Z,16.70
2018-11-26T07:48:18.593Z,17.43
2018-11-26T07:50:47.149Z,17.40
2018-11-26T07:53:15.649Z,17.30
2018-11-26T07:55:44.391Z,17.70
2018-11-26T07:58:12.890Z,15.87
2018-11-26T08:00:41.357Z,17.93
2018-11-26T08:03:09.786Z,16.33
2018-11-26T08:05:38.761Z,17.13
2018-11-26T08:08:07.288Z,16.53
2018-11-26T08:12:00.192Z,16.73
2018-11-26T08:14:28.780Z,15.70
2018-11-26T08:16:57.303Z,15.77
2018-11-26T08:19:25.875Z,16.23
2018-11-26T08:21:54.384Z,16.03
2018-11-26T08:24:22.821Z,14.00
2018-11-26T08:26:51.336Z,14.00
2018-11-26T08:29:19.866Z,13.93
2018-11-26T08:31:48.361Z,15.47
2018-11-26T08:34:16.828Z,15.80
2018-11-26T08:36:46.978Z,14.67
2018-11-26T08:39:18.757Z,16.00
2018-11-26T08:41:53.571Z,16.47
2018-11-26T08:44:28.006Z,13.83
2018-11-26T08:48:04.700Z,16.53
2018-11-26T08:50:33.736Z,15.57
2018-11-26T08:53:02.220Z,13.23
2018-11-26T08:55:30.683Z,14.93
2018-11-26T08:58:01.672Z,14.33
2018-11-26T09:00:32.288Z,13.93
2018-11-26T09:03:05.776Z,13.53
2018-11-26T09:05:35.993Z,15.00
2018-11-26T09:08:04.499Z,13.23
2018-11-26T09:10:33.024Z,14.67
2018-11-26T09:13:02.486Z,14.67
2018-11-26T09:15:30.922Z,13.87
2018-11-26T09:17:59.393Z,12.47
2018-11-26T09:20:28.857Z,12.90
2018-11-26T09:22:57.795Z,12.50
2018-11-26T09:25:26.393Z,13.53
2018-11-26T09:27:55.635Z,14.63
2018-11-26T09:30:24.085Z,13.77
2018-11-26T09:32:52.646Z,16.37
2018-11-26T09:35:21.087Z,12.60
2018-11-26T09:37:49.600Z,13.63
2018-11-26T09:40:18.839Z,14.10
2018-11-26T09:42:47.411Z,13.97
2018-11-26T09:45:16.976Z,13.77
2018-11-26T09:47:45.738Z,13.13
2018-11-26T09:50:16.512Z,14.87
2018-11-26T09:52:45.375Z,13.37
2018-11-26T09:55:14.731Z,13.47
2018-11-26T09:57:43.213Z,13.30
2018-11-26T10:00:18.794Z,12.53
2018-11-26T10:02:48.607Z,14.30
2018-11-26T10:05:19.281Z,21.77
2018-11-26T10:07:47.726Z,13.47
2018-11-26T10:10:16.269Z,16.43
2018-11-26T10:12:45.665Z,13.13
2018-11-26T10:15:16.278Z,15.03
2018-11-26T10:17:44.858Z,18.33
2018-11-26T10:20:13.426Z,21.03
2018-11-26T10:22:43.261Z,16.27
2018-11-26T10:25:15.334Z,16.73
2018-11-26T10:27:44.265Z,14.27
2018-11-26T10:30:15.593Z,15.87
2018-11-26T10:32:45.617Z,15.87
2018-11-26T10:35:15.014Z,15.47
2018-11-26T10:37:43.549Z,16.73
2018-11-26T10:40:18.103Z,17.43
2018-11-26T10:42:47.605Z,15.60
2018-11-26T10:45:19.987Z,18.53
2018-11-26T10:47:48.495Z,16.13
2018-11-26T10:50:19.433Z,17.30
2018-11-26T10:52:50.670Z,16.23
2018-11-26T10:55:23.385Z,17.40
2018-11-26T10:57:51.977Z,20.73
2018-11-26T11:00:25.897Z,18.83
2018-11-26T11:02:55.059Z,18.30
2018-11-26T11:05:23.531Z,17.60
2018-11-26T11:07:52.097Z,19.43
2018-11-26T11:10:21.987Z,14.17
2018-11-26T11:12:51.183Z,14.93
2018-11-26T11:15:19.682Z,17.70
2018-11-26T11:17:48.185Z,18.13
2018-11-26T11:20:20.504Z,17.67
2018-11-26T11:22:49.030Z,16.77
2018-11-26T11:25:18.420Z,16.37
2018-11-26T11:27:47.175Z,16.07
2018-11-26T11:30:16.718Z,17.37
2018-11-26T11:32:45.338Z,18.80
2018-11-26T11:35:14.585Z,15.70
2018-11-26T11:37:43.896Z,17.30
2018-11-26T11:40:18.928Z,16.00
2018-11-26T11:42:48.668Z,16.60
2018-11-26T11:45:18.074Z,15.93
2018-11-26T11:47:46.641Z,16.80
2018-11-26T11:50:16.213Z,16.07
2018-11-26T11:52:44.972Z,18.43
2018-11-26T11:55:15.860Z,18.10
2018-11-26T11:57:44.371Z,16.23
2018-11-26T12:00:23.034Z,20.23
2018-11-26T12:02:51.841Z,19.70
2018-11-26T12:05:21.965Z,16.53
2018-11-26T12:07:50.454Z,16.30
2018-11-26T12:10:18.978Z,16.43
2018-11-26T12:12:47.532Z,15.37
2018-11-26T12:15:16.877Z,18.30
2018-11-26T12:17:46.122Z,15.17
2018-11-26T12:20:15.492Z,16.40
2018-11-26T12:22:45.112Z,15.63
2018-11-26T12:25:15.826Z,16.27
2018-11-26T12:27:44.280Z,16.93
2018-11-26T12:30:23.466Z,17.73
2018-11-26T12:32:52.429Z,16.80
2018-11-26T12:35:20.930Z,20.70
2018-11-26T12:37:49.369Z,18.53
2018-11-26T12:40:21.771Z,18.27
2018-11-26T12:42:51.471Z,22.23
2018-11-26T12:45:22.933Z,20.07
2018-11-26T12:47:51.523Z,18.27
2018-11-26T12:50:20.228Z,14.93
2018-11-26T12:52:48.706Z,19.10
2018-11-26T12:55:18.405Z,16.80
2018-11-26T12:57:47.845Z,17.10
2018-11-26T13:00:21.369Z,16.83
2018-11-26T13:02:53.132Z,21.03
2018-11-26T13:05:21.742Z,20.27
2018-11-26T13:07:50.284Z,16.13
2018-11-26T13:10:20.269Z,21.40
2018-11-26T13:12:50.084Z,17.73
2018-11-26T13:15:20.538Z,14.30
2018-11-26T13:17:49.065Z,15.03
2018-11-26T13:20:26.422Z,17.73
2018-11-26T13:22:55.621Z,15.43
2018-11-26T13:25:25.513Z,18.67
2018-11-26T13:28:05.093Z,17.30
2018-11-26T13:30:40.621Z,17.47
2018-11-26T13:33:10.739Z,15.43
2018-11-26T13:35:39.755Z,15.27
2018-11-26T13:38:08.954Z,17.33
2018-11-26T13:40:38.322Z,18.23
2018-11-26T13:43:09.356Z,21.17
2018-11-26T13:45:39.814Z,17.53
2018-11-26T13:48:09.769Z,13.10
2018-11-26T13:50:41.767Z,16.17
2018-11-26T13:53:11.475Z,17.10
2018-11-26T13:55:39.956Z,16.53
2018-11-26T13:58:08.855Z,17.47
2018-11-26T14:00:37.644Z,13.97
2018-11-26T14:03:06.888Z,12.87
2018-11-26T14:05:35.605Z,15.30
2018-11-26T14:08:04.072Z,15.30
2018-11-26T14:10:32.612Z,14.03
2018-11-26T14:13:08.838Z,15.47
2018-11-26T14:15:37.949Z,16.23
2018-11-26T14:18:06.518Z,14.60
2018-11-26T14:20:34.977Z,14.83
2018-11-26T14:23:04.533Z,15.63
2018-11-26T14:25:33.237Z,14.80
2018-11-26T14:28:01.684Z,12.73
2018-11-26T14:30:31.276Z,16.30
2018-11-26T14:33:00.256Z,15.73
2018-11-26T14:35:28.560Z,13.27
2018-11-26T14:37:59.534Z,14.17
2018-11-26T14:40:31.406Z,13.77
2018-11-26T14:43:01.319Z,14.50
2018-11-26T14:45:29.836Z,15.90
2018-11-26T14:47:58.593Z,12.67
2018-11-26T14:50:34.762Z,14.17
2018-11-26T14:53:05.526Z,13.03
2018-11-26T14:55:38.165Z,15.63
2018-11-26T14:58:07.068Z,16.10
2018-11-26T15:00:35.654Z,15.97
2018-11-26T15:03:04.623Z,15.90
2018-11-26T15:05:33.159Z,14.40
2018-11-26T15:08:01.566Z,15.50
2018-11-26T15:10:30.084Z,17.67
2018-11-26T15:12:58.574Z,15.10
2018-11-26T15:15:27.721Z,21.13
2018-11-26T15:17:56.229Z,15.57
2018-11-26T15:20:27.561Z,15.10
2018-11-26T15:22:56.908Z,16.00
2018-11-26T15:25:26.734Z,15.17
2018-11-26T15:27:56.407Z,17.00
2018-11-26T15:30:24.911Z,15.33
2018-11-26T15:32:53.451Z,14.93
2018-11-26T15:35:23.590Z,19.90
2018-11-26T15:37:52.023Z,16.37
2018-11-26T15:40:21.543Z,17.27
2018-11-26T15:42:50.338Z,17.20
2018-11-26T15:45:24.746Z,15.30
2018-11-26T15:47:54.120Z,17.80
2018-11-26T15:50:22.718Z,19.27
2018-11-26T15:52:52.001Z,16.27
2018-11-26T15:55:21.624Z,17.03
2018-11-26T15:57:50.437Z,16.93
2018-11-26T16:00:22.036Z,16.73
2018-11-26T16:02:51.060Z,20.50
2018-11-26T16:05:23.718Z,18.07
2018-11-26T16:07:52.686Z,20.10
2018-11-26T16:10:21.188Z,20.00
2018-11-26T16:12:54.371Z,16.77
2018-11-26T16:15:24.222Z,18.87
2018-11-26T16:17:53.592Z,23.87
2018-11-26T16:20:23.471Z,19.83
2018-11-26T16:22:52.800Z,19.97
2018-11-26T16:25:23.436Z,20.95
2018-11-26T16:27:51.905Z,19.37
2018-11-26T16:30:20.394Z,21.57
2018-11-26T16:32:53.250Z,23.43
2018-11-26T16:35:23.868Z,19.27
2018-11-26T16:37:52.484Z,20.37
2018-11-26T16:40:20.899Z,20.43
2018-11-26T16:42:49.753Z,19.47
2018-11-26T16:45:20.074Z,22.90
2018-11-26T16:47:50.774Z,19.40
2018-11-26T16:50:20.312Z,20.93
2018-11-26T16:52:48.798Z,22.33
2018-11-26T16:55:18.064Z,21.20
2018-11-26T16:57:46.714Z,24.43
2018-11-26T17:00:22.083Z,20.50
2018-11-26T17:02:53.928Z,22.10
2018-11-26T17:05:25.395Z,22.83
2018-11-26T17:07:54.818Z,20.63
2018-11-26T17:10:23.362Z,23.27
2018-11-26T17:12:52.554Z,20.40
2018-11-26T17:15:21.165Z,21.97
2018-11-26T17:17:49.741Z,25.40
2018-11-26T17:20:19.219Z,23.30
2018-11-26T17:22:47.793Z,22.87
2018-11-26T17:25:17.338Z,23.77
2018-11-26T17:27:47.153Z,25.50
2018-11-26T17:30:24.113Z,21.17
2018-11-26T17:32:58.170Z,22.70
2018-11-26T17:35:26.938Z,91.07
2018-11-26T17:37:55.477Z,66.17
2018-11-26T17:40:24.573Z,34.53
2018-11-26T17:42:54.709Z,24.23
2018-11-26T17:45:24.162Z,23.97
2018-11-26T17:47:56.604Z,23.87
2018-11-26T17:50:27.367Z,23.77
2018-11-26T17:52:56.095Z,23.97
2018-11-26T17:55:24.489Z,26.87
2018-11-26T17:57:52.981Z,26.60
2018-11-26T18:00:23.100Z,24.10
2018-11-26T18:02:54.234Z,26.50
2018-11-26T18:05:27.359Z,30.93
2018-11-26T18:08:01.689Z,28.60
2018-11-26T18:10:30.233Z,30.00
2018-11-26T18:12:59.665Z,39.97
2018-11-26T18:15:28.319Z,41.57
2018-11-26T18:17:57.178Z,31.00
2018-11-26T18:20:25.655Z,30.33
2018-11-26T18:22:55.069Z,28.97
2018-11-26T18:25:24.374Z,25.80
2018-11-26T18:27:58.762Z,28.47
2018-11-26T18:30:31.017Z,22.93
2018-11-26T18:33:00.001Z,25.47
2018-11-26T18:35:28.593Z,24.83
2018-11-26T18:37:57.148Z,25.97
2018-11-26T18:40:25.592Z,22.60
2018-11-26T18:42:54.100Z,22.57
2018-11-26T18:45:22.570Z,23.13
2018-11-26T18:47:51.051Z,23.37
2018-11-26T18:50:20.807Z,23.40
2018-11-26T18:52:50.929Z,21.80
2018-11-26T18:55:19.891Z,24.10
2018-11-26T18:57:48.398Z,22.17
2018-11-26T19:00:21.127Z,18.83
2018-11-26T19:02:49.831Z,24.63
2018-11-26T19:05:19.295Z,21.60
2018-11-26T19:07:49.470Z,23.03
2018-11-26T19:10:20.185Z,20.50
2018-11-26T19:12:51.712Z,20.30
2018-11-26T19:15:22.028Z,24.67
2018-11-26T19:17:51.355Z,24.60
2018-11-26T19:20:19.941Z,23.57
2018-11-26T19:22:48.435Z,24.57
2018-11-26T19:25:21.539Z,23.80
2018-11-26T19:27:50.416Z,21.53
2018-11-26T19:30:23.061Z,22.67
2018-11-26T19:32:49.080Z,22.67
2018-11-26T19:35:18.355Z,23.27
2018-11-26T19:37:46.882Z,26.37
2018-11-26T19:40:17.101Z,25.33
2018-11-26T19:42:47.426Z,22.93
2018-11-26T19:45:18.161Z,25.37
2018-11-26T19:47:46.930Z,21.87
2018-11-26T19:50:17.453Z,21.00
2018-11-26T19:52:47.389Z,22.93
2018-11-26T19:55:19.365Z,24.63
2018-11-26T19:57:47.816Z,22.20
2018-11-26T20:00:17.638Z,21.03
2018-11-26T20:02:49.353Z,24.50
2018-11-26T20:05:23.326Z,29.10
2018-11-26T20:07:51.836Z,31.70
2018-11-26T20:10:20.407Z,23.03
2018-11-26T20:12:48.977Z,25.83
2018-11-26T20:15:18.089Z,27.47
2018-11-26T20:17:46.641Z,23.10
2018-11-26T20:20:15.122Z,26.93
2018-11-26T20:22:43.638Z,26.37
2018-11-26T20:25:14.345Z,26.70
2018-11-26T20:27:43.135Z,27.90
2018-11-26T20:30:16.430Z,26.93
2018-11-26T20:32:47.010Z,25.43
2018-11-26T20:35:15.470Z,28.43
2018-11-26T20:37:44.617Z,28.53
2018-11-26T20:40:15.102Z,26.83
2018-11-26T20:42:49.579Z,29.30
2018-11-26T20:45:18.045Z,27.83
2018-11-26T20:47:47.217Z,26.43
2018-11-26T20:50:20.281Z,27.87
2018-11-26T20:52:49.428Z,27.47
2018-11-26T20:55:19.189Z,29.03
2018-11-26T20:57:48.443Z,28.23
2018-11-26T21:00:18.570Z,31.33
2018-11-26T21:02:48.151Z,31.13
2018-11-26T21:05:16.765Z,30.50
2018-11-26T21:07:45.233Z,31.30
2018-11-26T21:10:14.743Z,30.30
2018-11-26T21:12:43.216Z,29.93
2018-11-26T21:15:14.653Z,27.87
2018-11-26T21:17:44.272Z,30.77
2018-11-26T21:20:15.034Z,34.10
2018-11-26T21:22:43.951Z,30.40
2018-11-26T21:25:14.862Z,31.73
2018-11-26T21:27:43.408Z,30.77
2018-11-26T21:30:16.149Z,28.47
2018-11-26T21:32:46.733Z,30.57
2018-11-26T21:35:16.417Z,30.63
2018-11-26T21:37:46.377Z,29.43
2018-11-26T21:40:20.322Z,30.37
2018-11-26T21:42:44.988Z,28.13
2018-11-26T21:45:19.458Z,29.07
2018-11-26T21:47:47.983Z,30.00
2018-11-26T21:50:16.723Z,28.80
2018-11-26T21:52:45.873Z,28.17
2018-11-26T21:55:15.563Z,26.37
2018-11-26T21:57:44.024Z,28.90
2018-11-26T22:00:23.818Z,25.80
2018-11-26T22:02:53.265Z,26.17
2018-11-26T22:05:21.786Z,26.87
2018-11-26T22:07:50.215Z,29.33
2018-11-26T22:10:21.718Z,29.93
2018-11-26T22:12:52.125Z,24.63
2018-11-26T22:15:20.616Z,27.50
2018-11-26T22:17:49.097Z,27.10
2018-11-26T22:20:23.796Z,29.20
2018-11-26T22:22:52.717Z,25.47
2018-11-26T22:25:21.174Z,28.03
2018-11-26T22:27:49.702Z,28.60
2018-11-26T22:30:23.338Z,25.73
2018-11-26T22:32:51.743Z,27.03
2018-11-26T22:35:20.217Z,29.37
2018-11-26T22:37:48.732Z,28.23
2018-11-26T22:40:22.354Z,26.80
2018-11-26T22:42:51.286Z,26.23
2018-11-26T22:45:24.773Z,26.97
2018-11-26T22:48:10.639Z,28.07
2018-11-26T22:50:40.513Z,26.23
2018-11-26T22:53:10.009Z,26.47
2018-11-26T22:55:38.463Z,29.80
2018-11-26T22:58:09.449Z,29.97
2018-11-26T23:00:47.852Z,30.27
2018-11-26T23:03:17.849Z,30.87
2018-11-26T23:05:46.366Z,29.93
2018-11-26T23:08:16.242Z,32.70
2018-11-26T23:10:44.712Z,31.67
2018-11-26T23:13:13.202Z,28.83
2018-11-26T23:15:41.643Z,31.20
2018-11-26T23:18:10.209Z,32.53
2018-11-26T23:20:38.648Z,30.80
2018-11-26T23:23:07.249Z,34.07
2018-11-26T23:25:35.961Z,35.80
2018-11-26T23:28:04.557Z,30.83
2018-11-26T23:30:33.096Z,28.43
2018-11-26T23:33:02.994Z,31.87
2018-11-26T23:35:31.465Z,29.80
2018-11-26T23:37:59.963Z,29.30
2018-11-26T23:40:28.436Z,33.57
2018-11-26T23:42:57.502Z,29.97
2018-11-26T23:45:26.944Z,32.33
2018-11-26T23:47:55.397Z,30.57
2018-11-26T23:50:23.990Z,29.30
2018-11-26T23:52:52.446Z,33.27
2018-11-26T23:55:22.906Z,29.77
2018-11-26T23:57:51.439Z,26.93
